createdAt,value
2022-10-12T00:00:11.447Z,28.75
2022-10-12T00:02:45.261Z,28.50
2022-10-12T00:05:17.937Z,28.90
2022-10-12T00:07:50.461Z,28.27
2022-10-12T00:10:23.047Z,27.52
2022-10-12T00:12:55.937Z,27.30
2022-10-12T00:15:28.405Z,28.65
2022-10-12T00:18:00.948Z,28.25
2022-10-12T00:20:33.547Z,28.60
2022-10-12T00:23:06.038Z,29.73
2022-10-12T00:25:40.587Z,30.35
2022-10-12T00:28:13.319Z,28.73
2022-10-12T00:30:45.989Z,28.63
2022-10-12T00:33:18.867Z,26.73
2022-10-12T00:35:53.491Z,27.02
2022-10-12T00:38:26.079Z,26.88
2022-10-12T00:40:58.532Z,25.83
2022-10-12T00:43:36.562Z,26.20
2022-10-12T00:46:25.164Z,25.45
2022-10-12T00:49:02.532Z,25.35
2022-10-12T00:51:35.338Z,26.00
2022-10-12T00:54:12.798Z,25.67
2022-10-12T00:56:48.460Z,26.38
2022-10-12T00:59:32.110Z,25.45
2022-10-12T01:02:04.827Z,26.50
2022-10-12T01:04:39.423Z,27.65
2022-10-12T01:07:12.329Z,27.65
2022-10-12T01:09:45.115Z,27.42
2022-10-12T01:12:19.069Z,25.80
2022-10-12T01:14:51.950Z,26.77
2022-10-12T01:17:32.258Z,27.77
2022-10-12T01:20:26.290Z,27.27
2022-10-12T01:23:16.171Z,27.90
2022-10-12T01:26:19.768Z,28.60
2022-10-12T01:28:59.267Z,27.02
2022-10-12T01:31:41.849Z,26.83
2022-10-12T01:34:35.003Z,27.30
2022-10-12T01:37:21.835Z,25.65
2022-10-12T01:39:56.581Z,25.75
2022-10-12T01:42:34.456Z,18.55
2022-10-12T01:45:10.640Z,26.55
2022-10-12T01:47:48.833Z,26.70
2022-10-12T01:50:24.837Z,26.50
2022-10-12T01:53:09.490Z,26.25
2022-10-12T01:56:05.292Z,26.15
2022-10-12T01:59:08.983Z,28.23
2022-10-12T02:01:52.047Z,27.50
2022-10-12T02:04:34.976Z,26.23
2022-10-12T02:07:17.753Z,28.27
2022-10-12T02:09:54.913Z,28.60
2022-10-12T02:12:31.887Z,27.42
2022-10-12T02:15:09.230Z,28.40
2022-10-12T02:17:45.007Z,27.50
2022-10-12T02:20:24.256Z,28.45
2022-10-12T02:22:56.717Z,27.95
2022-10-12T02:25:31.695Z,27.65
2022-10-12T02:28:10.817Z,28.58
2022-10-12T02:30:53.777Z,29.35
2022-10-12T02:33:35.912Z,29.83
2022-10-12T02:36:17.221Z,28.42
2022-10-12T02:39:01.613Z,28.73
2022-10-12T02:41:43.468Z,29.73
2022-10-12T02:44:21.133Z,30.17
2022-10-12T02:46:55.375Z,29.50
2022-10-12T02:49:29.310Z,27.52
2022-10-12T02:52:04.538Z,29.35
2022-10-12T02:54:37.269Z,28.60
2022-10-12T02:57:09.799Z,27.02
2022-10-12T02:59:42.289Z,28.17
2022-10-12T03:02:14.977Z,28.40
2022-10-12T03:04:47.703Z,28.17
2022-10-12T03:07:20.429Z,27.80
2022-10-12T03:09:53.126Z,27.45
2022-10-12T03:12:25.796Z,28.23
2022-10-12T03:14:58.393Z,29.00
2022-10-12T03:17:30.955Z,28.10
2022-10-12T03:20:03.650Z,29.30
2022-10-12T03:22:36.325Z,27.35
2022-10-12T03:25:08.914Z,29.83
2022-10-12T03:27:41.621Z,27.75
2022-10-12T03:30:14.935Z,28.45
2022-10-12T03:32:47.534Z,29.02
2022-10-12T03:35:20.030Z,26.48
2022-10-12T03:37:52.628Z,27.77
2022-10-12T03:40:25.176Z,27.17
2022-10-12T03:42:57.749Z,29.02
2022-10-12T03:45:30.197Z,28.65
2022-10-12T03:48:05.248Z,29.30
2022-10-12T03:53:11.007Z,27.27
2022-10-12T03:55:43.689Z,28.25
2022-10-12T03:58:16.910Z,28.10
2022-10-12T04:00:53.316Z,26.85
2022-10-12T04:03:25.854Z,27.67
2022-10-12T04:05:59.057Z,26.50
2022-10-12T04:08:31.654Z,27.85
2022-10-12T04:11:04.413Z,27.85
2022-10-12T04:13:36.946Z,26.33
2022-10-12T04:16:10.341Z,27.38
2022-10-12T04:18:42.870Z,27.85
2022-10-12T04:21:17.162Z,28.08
2022-10-12T04:23:49.855Z,27.00
2022-10-12T04:26:22.446Z,28.02
2022-10-12T04:28:55.303Z,28.13
2022-10-12T04:31:27.913Z,28.27
2022-10-12T04:34:00.973Z,28.98
2022-10-12T04:36:33.606Z,28.98
2022-10-12T04:39:06.548Z,27.08
2022-10-12T04:41:39.916Z,28.40
2022-10-12T04:44:12.498Z,27.60
2022-10-12T04:46:45.173Z,27.52
2022-10-12T04:49:17.855Z,27.17
2022-10-12T04:51:50.522Z,28.15
2022-10-12T04:54:23.238Z,28.98
2022-10-12T04:56:55.767Z,27.70
2022-10-12T04:59:28.436Z,27.17
2022-10-12T05:02:00.942Z,28.65
2022-10-12T05:07:11.237Z,28.75
2022-10-12T05:09:44.274Z,27.70
2022-10-12T05:12:17.124Z,27.50
2022-10-12T05:14:49.734Z,28.30
2022-10-12T05:17:22.247Z,27.02
2022-10-12T05:19:55.145Z,28.08
2022-10-12T05:22:27.852Z,27.90
2022-10-12T05:25:00.533Z,29.63
2022-10-12T05:27:33.208Z,31.55
2022-10-12T05:30:07.454Z,28.88
2022-10-12T05:32:40.428Z,29.45
2022-10-12T05:35:13.276Z,29.38
2022-10-12T05:37:45.875Z,29.10
2022-10-12T05:40:18.945Z,28.42
2022-10-12T05:42:51.960Z,31.65
2022-10-12T05:45:24.710Z,29.02
2022-10-12T05:47:57.424Z,30.55
2022-10-12T05:50:31.053Z,30.13
2022-10-12T05:53:03.803Z,28.85
2022-10-12T05:55:36.524Z,29.25
2022-10-12T05:58:09.167Z,29.67
2022-10-12T06:00:42.065Z,29.48
2022-10-12T06:03:18.493Z,32.25
2022-10-12T06:05:51.752Z,28.38
2022-10-12T06:08:24.350Z,30.92
2022-10-12T06:10:57.306Z,33.45
2022-10-12T06:13:29.901Z,30.80
2022-10-12T06:16:02.602Z,30.52
2022-10-12T06:18:35.168Z,31.92
2022-10-12T06:21:32.377Z,33.05
2022-10-12T06:24:00.536Z,34.47
2022-10-12T06:26:33.426Z,31.88
2022-10-12T06:29:05.914Z,32.63
2022-10-12T06:31:40.261Z,33.47
2022-10-12T06:34:12.762Z,29.88
2022-10-12T06:36:45.572Z,31.88
2022-10-12T06:39:18.375Z,32.92
2022-10-12T06:41:51.625Z,32.75
2022-10-12T06:44:25.529Z,34.47
2022-10-12T06:46:58.211Z,32.50
2022-10-12T06:49:31.402Z,31.35
2022-10-12T06:52:04.320Z,32.08
2022-10-12T06:54:37.056Z,31.75
2022-10-12T06:57:10.178Z,32.47
2022-10-12T06:59:42.916Z,33.35
2022-10-12T07:02:15.610Z,30.77
2022-10-12T07:04:52.556Z,33.25
2022-10-12T07:07:25.146Z,32.03
2022-10-12T07:09:57.735Z,33.10
2022-10-12T07:12:30.440Z,32.75
2022-10-12T07:15:04.426Z,32.17
2022-10-12T07:17:37.661Z,31.77
2022-10-12T07:20:10.755Z,32.63
2022-10-12T07:22:44.978Z,33.55
2022-10-12T07:25:17.870Z,34.25
2022-10-12T07:27:50.791Z,33.30
2022-10-12T07:30:23.427Z,32.85
2022-10-12T07:32:56.106Z,32.50
2022-10-12T07:35:28.698Z,32.45
2022-10-12T07:38:01.276Z,34.25
2022-10-12T07:40:34.518Z,34.30
2022-10-12T07:43:15.585Z,33.50
2022-10-12T07:45:49.749Z,33.28
2022-10-12T07:48:23.383Z,32.13
2022-10-12T07:50:56.089Z,32.55
2022-10-12T07:53:28.892Z,33.78
2022-10-12T07:56:02.676Z,34.55
2022-10-12T07:58:35.359Z,32.63
2022-10-12T08:01:10.374Z,31.17
2022-10-12T08:03:43.206Z,33.95
2022-10-12T08:06:18.710Z,33.28
2022-10-12T08:08:51.683Z,28.95
2022-10-12T08:11:24.303Z,34.05
2022-10-12T08:13:57.025Z,30.88
2022-10-12T08:16:30.053Z,32.33
2022-10-12T08:19:02.940Z,32.38
2022-10-12T08:21:35.640Z,33.58
2022-10-12T08:24:09.696Z,34.95
2022-10-12T08:26:42.365Z,32.88
2022-10-12T08:29:15.424Z,32.40
2022-10-12T08:31:50.740Z,33.53
2022-10-12T08:36:59.875Z,31.20
2022-10-12T08:39:32.310Z,33.15
2022-10-12T08:42:08.401Z,32.83
2022-10-12T08:44:42.333Z,31.05
2022-10-12T08:47:46.241Z,31.95
2022-10-12T08:50:29.949Z,31.45
2022-10-12T08:53:11.494Z,31.52
2022-10-12T08:55:45.986Z,31.50
2022-10-12T08:58:31.623Z,31.38
2022-10-12T09:01:23.598Z,30.77
2022-10-12T09:04:05.664Z,32.65
2022-10-12T09:06:55.576Z,32.95
2022-10-12T09:09:47.176Z,32.80
2022-10-12T09:12:23.580Z,31.58
2022-10-12T09:15:03.127Z,32.97
2022-10-12T09:17:42.406Z,32.08
2022-10-12T09:20:20.424Z,33.15
2022-10-12T09:22:59.219Z,33.45
2022-10-12T09:25:31.831Z,32.42
2022-10-12T09:28:20.922Z,33.45
2022-10-12T09:31:07.822Z,33.05
2022-10-12T09:33:57.654Z,33.38
2022-10-12T09:36:35.578Z,34.53
2022-10-12T09:39:16.352Z,34.15
2022-10-12T09:41:49.873Z,36.25
2022-10-12T09:44:23.477Z,36.17
2022-10-12T09:46:59.742Z,36.83
2022-10-12T09:49:50.642Z,34.33
2022-10-12T09:52:29.032Z,36.60
2022-10-12T09:55:06.154Z,37.70
2022-10-12T09:57:43.845Z,35.28
2022-10-12T10:00:28.235Z,33.85
2022-10-12T10:03:02.569Z,36.22
2022-10-12T10:05:38.283Z,36.75
2022-10-12T10:08:26.017Z,36.30
2022-10-12T10:11:01.128Z,33.63
2022-10-12T10:13:49.992Z,32.47
2022-10-12T10:16:26.382Z,32.05
2022-10-12T10:19:02.034Z,31.58
2022-10-12T10:21:38.178Z,27.90
2022-10-12T10:24:28.455Z,25.20
2022-10-12T10:27:04.939Z,26.23
2022-10-12T10:29:41.171Z,26.60
2022-10-12T10:32:30.070Z,25.38
2022-10-12T10:35:15.562Z,23.20
2022-10-12T10:37:52.478Z,24.20
2022-10-12T10:40:28.925Z,23.58
2022-10-12T10:43:07.138Z,25.80
2022-10-12T10:45:48.660Z,25.90
2022-10-12T10:48:25.090Z,23.75
2022-10-12T10:51:03.123Z,23.90
2022-10-12T10:53:47.428Z,24.92
2022-10-12T10:56:24.274Z,26.38
2022-10-12T10:59:00.325Z,24.25
2022-10-12T11:01:46.515Z,20.85
2022-10-12T11:04:38.087Z,19.45
2022-10-12T11:07:19.932Z,19.95
2022-10-12T11:09:58.453Z,19.27
2022-10-12T11:12:36.372Z,20.17
2022-10-12T11:15:16.111Z,16.90
2022-10-12T11:17:53.422Z,19.27
2022-10-12T11:20:35.532Z,18.77
2022-10-12T11:23:19.954Z,20.15
2022-10-12T11:26:03.869Z,18.17
2022-10-12T11:28:38.030Z,19.00
2022-10-12T11:31:23.584Z,17.88
2022-10-12T11:34:00.781Z,18.60
2022-10-12T11:36:38.258Z,17.35
2022-10-12T11:39:33.727Z,16.40
2022-10-12T11:42:27.601Z,16.25
2022-10-12T11:45:05.633Z,15.57
2022-10-12T11:47:47.604Z,15.70
2022-10-12T11:50:33.770Z,15.93
2022-10-12T11:53:17.543Z,14.55
2022-10-12T11:56:13.069Z,15.65
2022-10-12T11:59:00.509Z,17.10
2022-10-12T12:01:58.246Z,15.05
2022-10-12T12:04:43.766Z,15.32
2022-10-12T12:07:39.710Z,17.13
2022-10-12T12:10:31.013Z,15.93
2022-10-12T12:13:23.131Z,15.73
2022-10-12T12:15:56.474Z,16.38
2022-10-12T12:18:34.138Z,16.13
2022-10-12T12:21:10.415Z,16.42
2022-10-12T12:23:53.977Z,15.57
2022-10-12T12:26:29.537Z,16.92
2022-10-12T12:29:16.413Z,16.63
2022-10-12T12:32:00.090Z,16.02
2022-10-12T12:34:32.808Z,17.10
2022-10-12T12:37:13.185Z,17.13
2022-10-12T12:39:52.033Z,17.35
2022-10-12T12:42:28.886Z,15.98
2022-10-12T12:45:39.253Z,16.92
2022-10-12T12:48:11.940Z,21.73
2022-10-12T12:50:45.099Z,15.95
2022-10-12T12:53:22.400Z,17.08
2022-10-12T12:56:05.628Z,15.50
2022-10-12T12:58:55.815Z,15.70
2022-10-12T13:01:52.047Z,14.60
2022-10-12T13:07:27.011Z,13.25
2022-10-12T13:10:19.167Z,13.90
2022-10-12T13:13:07.524Z,12.45
2022-10-12T13:16:07.857Z,12.38
2022-10-12T13:19:12.011Z,13.35
2022-10-12T13:21:48.233Z,15.23
2022-10-12T13:24:24.763Z,14.02
2022-10-12T13:27:17.034Z,14.80
2022-10-12T13:29:58.720Z,16.02
2022-10-12T13:32:33.734Z,16.40
2022-10-12T13:35:17.459Z,14.60
2022-10-12T13:38:02.440Z,16.17
2022-10-12T13:40:38.422Z,14.60
2022-10-12T13:43:29.141Z,14.60
2022-10-12T13:46:02.138Z,14.25
2022-10-12T13:48:58.253Z,13.30
2022-10-12T13:51:30.654Z,13.13
2022-10-12T13:54:14.632Z,14.50
2022-10-12T13:56:49.987Z,13.52
2022-10-12T14:02:01.187Z,13.43
2022-10-12T14:04:35.505Z,13.68
2022-10-12T14:07:18.571Z,12.40
2022-10-12T14:09:57.717Z,9.77
2022-10-12T14:12:32.673Z,11.18
2022-10-12T14:15:06.994Z,11.73
2022-10-12T14:17:46.673Z,10.80
2022-10-12T14:20:31.343Z,11.65
2022-10-12T14:23:12.793Z,12.15
2022-10-12T14:25:55.701Z,13.88
2022-10-12T14:28:35.569Z,12.88
2022-10-12T14:31:09.036Z,14.40
2022-10-12T14:33:41.777Z,13.48
2022-10-12T14:36:25.808Z,14.77
2022-10-12T14:39:13.734Z,14.77
2022-10-12T14:41:51.549Z,15.60
2022-10-12T14:44:27.083Z,16.75
2022-10-12T14:47:06.434Z,15.82
2022-10-12T14:49:42.887Z,15.15
2022-10-12T14:52:24.780Z,16.55
2022-10-12T14:54:59.819Z,16.67
2022-10-12T14:57:33.017Z,15.20
2022-10-12T15:00:06.450Z,15.98
2022-10-12T15:02:42.983Z,16.05
2022-10-12T15:05:19.011Z,17.13
2022-10-12T15:07:53.229Z,15.07
2022-10-12T15:10:27.531Z,14.95
2022-10-12T15:13:01.036Z,14.68
2022-10-12T15:15:42.591Z,14.25
2022-10-12T15:18:16.249Z,14.52
2022-10-12T15:20:49.741Z,14.88
2022-10-12T15:23:23.257Z,14.73
2022-10-12T15:25:56.966Z,14.75
2022-10-12T15:28:30.216Z,15.23
2022-10-12T15:31:17.053Z,14.73
2022-10-12T15:33:50.664Z,14.85
2022-10-12T15:36:23.261Z,15.07
2022-10-12T15:38:55.996Z,14.48
2022-10-12T15:41:28.499Z,15.65
2022-10-12T15:44:01.235Z,15.95
2022-10-12T15:46:33.742Z,15.18
2022-10-12T15:49:07.061Z,14.82
2022-10-12T15:51:46.190Z,16.10
2022-10-12T15:54:18.989Z,15.10
2022-10-12T15:56:51.605Z,14.60
2022-10-12T15:59:24.254Z,14.20
2022-10-12T16:01:56.911Z,15.07
2022-10-12T16:04:29.673Z,14.38
2022-10-12T16:07:02.335Z,15.35
2022-10-12T16:09:35.085Z,14.13
2022-10-12T16:12:07.897Z,14.82
2022-10-12T16:14:40.564Z,13.90
2022-10-12T16:17:13.401Z,15.25
2022-10-12T16:19:46.475Z,13.80
2022-10-12T16:22:19.225Z,14.82
2022-10-12T16:24:51.897Z,13.68
2022-10-12T16:27:24.724Z,15.30
2022-10-12T16:29:57.799Z,14.55
2022-10-12T16:32:30.495Z,14.07
2022-10-12T16:35:04.352Z,13.35
2022-10-12T16:37:37.120Z,13.07
2022-10-12T16:40:12.123Z,11.70
2022-10-12T16:42:44.894Z,11.63
2022-10-12T16:45:17.701Z,11.65
2022-10-12T16:47:51.011Z,10.93
2022-10-12T16:50:25.709Z,11.65
2022-10-12T16:52:58.443Z,11.10
2022-10-12T16:55:31.576Z,10.73
2022-10-12T16:58:04.430Z,11.38
2022-10-12T17:00:37.483Z,11.13
2022-10-12T17:03:14.154Z,10.77
2022-10-12T17:05:46.897Z,10.75
2022-10-12T17:08:19.427Z,10.20
2022-10-12T17:10:52.196Z,10.55
2022-10-12T17:13:26.386Z,10.57
2022-10-12T17:16:14.630Z,11.73
2022-10-12T17:18:47.298Z,12.02
2022-10-12T17:21:20.118Z,12.05
2022-10-12T17:23:56.029Z,11.32
2022-10-12T17:26:29.529Z,12.10
2022-10-12T17:29:07.240Z,12.77
2022-10-12T17:31:41.790Z,13.18
2022-10-12T17:34:21.754Z,12.70
2022-10-12T17:36:56.585Z,13.00
2022-10-12T17:39:32.111Z,12.93
2022-10-12T17:42:05.940Z,12.43
2022-10-12T17:44:38.799Z,12.23
2022-10-12T17:47:11.438Z,12.48
2022-10-12T17:49:44.274Z,12.02
2022-10-12T17:52:17.578Z,12.13
2022-10-12T17:54:51.033Z,13.10
2022-10-12T17:57:23.781Z,12.88
2022-10-12T17:59:56.593Z,13.82
2022-10-12T18:02:29.882Z,13.55
2022-10-12T18:05:02.677Z,14.90
2022-10-12T18:07:36.463Z,16.50
2022-10-12T18:10:10.076Z,16.38
2022-10-12T18:12:43.035Z,16.08
2022-10-12T18:15:15.676Z,13.57
2022-10-12T18:17:48.296Z,14.25
2022-10-12T18:20:20.928Z,14.23
2022-10-12T18:22:54.166Z,13.98
2022-10-12T18:25:26.893Z,13.50
2022-10-12T18:28:00.454Z,14.80
2022-10-12T18:30:34.381Z,14.35
2022-10-12T18:33:07.217Z,14.20
2022-10-12T18:35:40.547Z,15.20
2022-10-12T18:38:13.720Z,14.35
2022-10-12T18:40:48.714Z,14.52
2022-10-12T18:43:22.117Z,14.60
2022-10-12T18:45:57.693Z,14.25
2022-10-12T18:48:30.681Z,14.18
2022-10-12T18:51:08.579Z,14.35
2022-10-12T18:53:42.914Z,13.30
2022-10-12T18:56:17.397Z,13.93
2022-10-12T18:58:50.797Z,13.70
2022-10-12T19:01:25.219Z,13.50
2022-10-12T19:04:00.029Z,12.95
2022-10-12T19:06:37.784Z,14.90
2022-10-12T19:09:16.456Z,14.45
2022-10-12T19:11:53.962Z,13.80
2022-10-12T19:14:29.018Z,13.63
2022-10-12T19:17:02.299Z,14.13
2022-10-12T19:19:37.257Z,15.43
2022-10-12T19:22:11.321Z,16.13
2022-10-12T19:24:47.427Z,15.95
2022-10-12T19:27:21.074Z,16.13
2022-10-12T19:29:55.425Z,15.68
2022-10-12T19:32:29.446Z,15.10
2022-10-12T19:35:05.660Z,15.65
2022-10-12T19:37:38.982Z,16.15
2022-10-12T19:40:14.871Z,16.02
2022-10-12T19:42:50.425Z,16.15
2022-10-12T19:45:24.945Z,17.63
2022-10-12T19:47:59.081Z,16.27
2022-10-12T19:50:32.464Z,15.40
2022-10-12T19:53:10.442Z,15.45
2022-10-12T19:55:43.400Z,15.23
2022-10-12T19:58:16.895Z,14.75
2022-10-12T20:00:50.154Z,14.48
2022-10-12T20:03:23.270Z,15.10
2022-10-12T20:05:56.314Z,16.10
2022-10-12T20:08:34.003Z,14.90
2022-10-12T20:11:12.152Z,15.18
2022-10-12T20:13:53.044Z,15.60
2022-10-12T20:16:32.465Z,14.88
2022-10-12T20:19:08.210Z,14.35
2022-10-12T20:21:41.370Z,14.10
2022-10-12T20:24:14.451Z,15.88
2022-10-12T20:26:48.469Z,14.48
2022-10-12T20:29:21.797Z,15.18
2022-10-12T20:31:55.495Z,15.20
2022-10-12T20:34:28.568Z,15.13
2022-10-12T20:37:01.519Z,14.35
2022-10-12T20:39:39.219Z,15.02
2022-10-12T20:42:12.220Z,14.50
2022-10-12T20:44:46.848Z,14.30
2022-10-12T20:47:19.618Z,15.30
2022-10-12T20:49:52.377Z,14.52
2022-10-12T20:52:25.038Z,13.65
2022-10-12T20:54:57.634Z,14.35
2022-10-12T20:57:30.548Z,14.60
2022-10-12T21:00:04.309Z,14.27
2022-10-12T21:02:38.723Z,13.40
2022-10-12T21:05:11.338Z,13.07
2022-10-12T21:07:44.043Z,13.68
2022-10-12T21:10:16.958Z,14.43
2022-10-12T21:12:50.872Z,13.63
2022-10-12T21:15:23.646Z,14.27
2022-10-12T21:17:56.223Z,13.40
2022-10-12T21:20:28.744Z,13.55
2022-10-12T21:23:01.379Z,14.23
2022-10-12T21:25:34.079Z,13.30
2022-10-12T21:28:06.731Z,13.32
2022-10-12T21:30:39.338Z,12.70
2022-10-12T21:33:14.529Z,12.20
2022-10-12T21:35:47.459Z,12.82
2022-10-12T21:38:20.139Z,13.07
2022-10-12T21:40:52.761Z,13.57
2022-10-12T21:43:25.542Z,13.13
2022-10-12T21:46:04.336Z,13.32
2022-10-12T21:48:37.464Z,13.50
2022-10-12T21:51:10.346Z,14.25
2022-10-12T21:53:43.103Z,13.15
2022-10-12T21:56:18.246Z,13.25
2022-10-12T21:58:52.243Z,13.73
2022-10-12T22:01:28.374Z,13.32
2022-10-12T22:04:03.511Z,12.73
2022-10-12T22:06:36.389Z,13.23
2022-10-12T22:09:15.796Z,13.40
2022-10-12T22:11:48.433Z,13.30
2022-10-12T22:14:21.647Z,14.38
2022-10-12T22:16:54.381Z,14.68
2022-10-12T22:19:27.041Z,15.05
2022-10-12T22:22:00.010Z,15.32
2022-10-12T22:24:34.010Z,15.20
2022-10-12T22:27:06.636Z,14.63
2022-10-12T22:29:39.405Z,15.55
2022-10-12T22:32:12.304Z,15.05
2022-10-12T22:34:44.943Z,15.40
2022-10-12T22:37:17.533Z,16.00
2022-10-12T22:39:50.138Z,16.27
2022-10-12T22:42:22.773Z,15.50
2022-10-12T22:44:55.609Z,16.00
2022-10-12T22:47:28.187Z,15.93
2022-10-12T22:50:02.014Z,15.60
2022-10-12T22:52:34.877Z,15.55
2022-10-12T22:55:08.487Z,15.80
2022-10-12T22:57:41.090Z,15.40
2022-10-12T23:00:15.247Z,15.73
2022-10-12T23:02:47.770Z,16.05
2022-10-12T23:05:20.446Z,16.42
2022-10-12T23:07:53.011Z,16.13
2022-10-12T23:10:25.952Z,16.42
2022-10-12T23:12:58.657Z,15.95
2022-10-12T23:15:33.675Z,16.13
2022-10-12T23:18:08.096Z,15.65
2022-10-12T23:20:43.775Z,15.98
2022-10-12T23:23:16.253Z,15.57
2022-10-12T23:25:50.162Z,17.25
2022-10-12T23:28:22.742Z,16.67
2022-10-12T23:30:55.483Z,16.00
2022-10-12T23:33:28.191Z,16.58
2022-10-12T23:36:04.019Z,17.25
2022-10-12T23:38:38.490Z,15.90
2022-10-12T23:41:12.207Z,15.47
2022-10-12T23:43:44.781Z,17.13
2022-10-12T23:46:17.331Z,17.52
2022-10-12T23:48:49.869Z,17.05
2022-10-12T23:51:22.352Z,17.15
2022-10-12T23:53:54.848Z,16.88
2022-10-12T23:56:27.382Z,15.93
2022-10-12T23:59:01.043Z,16.83
